Observation data for Friona on 08/14/2019      Previous  Date  Next       Current Mesonet Observations  Soil Data  Daily Summary Page  Observations in Plain Language
KFAS 140500Z 13007KT 23/17 A302 RMK A01 T02300166  RH  071%=      5-min Rain = 0
KFAS 140505Z 13007KT 23/17 A302 RMK A01 T02280166  RH  071%=      5-min Rain = 0
KFAS 140510Z 13007KT 23/17 A302 RMK A01 T02270166  RH  072%=      5-min Rain = 0
KFAS 140515Z 13007KT 23/17 A302 RMK A01 T02250167  RH  073%=      5-min Rain = 0
KFAS 140520Z 12006KT 22/17 A302 RMK A01 T02230168  RH  074%=      5-min Rain = 0
KFAS 140525Z 12006KT 22/17 A302 RMK A01 T02200168  RH  076%=      5-min Rain = 0
KFAS 140530Z 11006KT 22/17 A302 RMK A01 T02170169  RH  078%=      5-min Rain = 0
KFAS 140535Z 11006KT 22/17 A302 RMK A01 T02160168  RH  078%=      5-min Rain = 0
KFAS 140540Z 11004KT 22/17 A302 RMK A01 T02150168  RH  078%=      5-min Rain = 0
KFAS 140545Z 09004KT 21/17 A302 RMK A01 T02130168  RH  079%=      5-min Rain = 0
KFAS 140550Z 10005KT 21/17 A302 RMK A01 T02130168  RH  080%=      5-min Rain = 0
KFAS 140555Z 10006KT 21/17 A302 RMK A01 T02110169  RH  081%=      5-min Rain = 0
KFAS 140600Z 11006KT 21/17 A302 RMK A01 T02110168  RH  080%=      5-min Rain = 0
KFAS 140605Z 10005KT 21/17 A3021 RMK A01 T02110168  RH  081%=      5-min Rain = 0
KFAS 140610Z 09005KT 21/17 A3021 RMK A01 T02100168  RH  081%=      5-min Rain = 0
KFAS 140615Z 10006KT 21/17 A3021 RMK A01 T02110167  RH  080%=      5-min Rain = 0
KFAS 140620Z 09006KT 21/17 A3021 RMK A01 T02140167  RH  079%=      5-min Rain = 0
KFAS 140625Z 09008KT 22/17 A3022 RMK A01 T02150167  RH  078%=      5-min Rain = 0
KFAS 140630Z 09008KT 22/17 A3022 RMK A01 T02180167  RH  076%=      5-min Rain = 0
KFAS 140635Z 08008KT 22/17 A3023 RMK A01 T02190166  RH  076%=      5-min Rain = 0
KFAS 140640Z 07008KT 22/17 A3023 RMK A01 T02180166  RH  076%=      5-min Rain = 0
KFAS 140645Z 08009KT 22/17 A3023 RMK A01 T02170166  RH  076%=      5-min Rain = 0
KFAS 140650Z 08010KT 22/17 A3023 RMK A01 T02180166  RH  076%=      5-min Rain = 0
KFAS 140655Z 08011G18KT 22/17 A3023 RMK A01 T02190166  RH  076%=      5-min Rain = 0
KFAS 140700Z 08011KT 22/17 A3023 RMK A01 T02190166  RH  076%=      5-min Rain = 0
KFAS 140705Z 08011G18KT 22/17 A3023 RMK A01 T02190166  RH  076%=      5-min Rain = 0
KFAS 140710Z 08011KT 22/17 A3023 RMK A01 T02190167  RH  076%=      5-min Rain = 0
KFAS 140715Z 08011KT 22/17 A3022 RMK A01 T02180167  RH  076%=      5-min Rain = 0
KFAS 140720Z 08011KT 22/17 A3023 RMK A01 T02180167  RH  077%=      5-min Rain = 0
KFAS 140725Z 09010G15KT 22/17 A3022 RMK A01 T02170167  RH  077%=      5-min Rain = 0
KFAS 140730Z 09010KT 22/17 A3022 RMK A01 T02170167  RH  077%=      5-min Rain = 0
KFAS 140735Z 09010KT 22/17 A3022 RMK A01 T02160167  RH  078%=      5-min Rain = 0
KFAS 140740Z 09010KT 22/17 A3022 RMK A01 T02160167  RH  078%=      5-min Rain = 0
KFAS 140745Z 09007KT 21/17 A3023 RMK A01 T02140167  RH  078%=      5-min Rain = 0
KFAS 140750Z 10005KT 21/17 A3023 RMK A01 T02130167  RH  079%=      5-min Rain = 0
KFAS 140755Z 10005KT 21/17 A3023 RMK A01 T02130167  RH  079%=      5-min Rain = 0
KFAS 140800Z 09008G13KT 21/17 A3023 RMK A01 T02140167  RH  078%=      5-min Rain = 0
KFAS 140805Z 09010KT 22/17 A3022 RMK A01 T02160165  RH  077%=      5-min Rain = 0
KFAS 140810Z 09010KT 22/16 A3022 RMK A01 T02170164  RH  075%=      5-min Rain = 0
KFAS 140815Z 08008KT 22/16 A3022 RMK A01 T02160164  RH  076%=      5-min Rain = 0
KFAS 140820Z 10007KT 21/16 A3022 RMK A01 T02140163  RH  077%=      5-min Rain = 0
KFAS 140825Z 10007KT 21/16 A3022 RMK A01 T02120163  RH  077%=      5-min Rain = 0
KFAS 140830Z 10007KT 21/16 A3022 RMK A01 T02110163  RH  078%=      5-min Rain = 0
KFAS 140835Z 10007KT 21/16 A3022 RMK A01 T02100163  RH  078%=      5-min Rain = 0
KFAS 140840Z 10008G13KT 21/16 A3021 RMK A01 T02100163  RH  078%=      5-min Rain = 0
KFAS 140845Z 10008KT 21/16 A3021 RMK A01 T02110163  RH  078%=      5-min Rain = 0
KFAS 140850Z 09007KT 21/16 A3021 RMK A01 T02100163  RH  078%=      5-min Rain = 0
KFAS 140855Z 09007KT 21/16 A3022 RMK A01 T02090162  RH  078%=      5-min Rain = 0
KFAS 140900Z 09007KT 21/16 A3022 RMK A01 T02080162  RH  079%=      5-min Rain = 0
KFAS 140905Z 07012G17KT 21/16 A3023 RMK A01 T02080162  RH  079%=      5-min Rain = 0
KFAS 140910Z 07011KT 21/16 A3023 RMK A01 T02080162  RH  079%=      5-min Rain = 0
KFAS 140915Z 06011KT 21/16 A3024 RMK A01 T02050162  RH  080%=      5-min Rain = 0
KFAS 140920Z 06012KT 20/16 A3024 RMK A01 T02030164  RH  082%=      5-min Rain = 0
KFAS 140925Z 06011G18KT 20/16 A3024 RMK A01 T02000163  RH  083%=      5-min Rain = 0
KFAS 140930Z 07012G18KT 20/16 A3024 RMK A01 T01980161  RH  083%=      5-min Rain = 0
KFAS 140935Z 06013KT 20/16 A3024 RMK A01 T01970158  RH  082%=      5-min Rain = 0
KFAS 140940Z 05012G18KT 20/16 A3025 RMK A01 T01960155  RH  081%=      5-min Rain = 0
KFAS 140945Z 05012G17KT 19/15 A3026 RMK A01 T01940153  RH  081%=      5-min Rain = 0
KFAS 140950Z 05013KT 19/15 A3026 RMK A01 T01920148  RH  079%=      5-min Rain = 0
KFAS 140955Z 05012KT 19/15 A3027 RMK A01 T01910145  RH  078%=      5-min Rain = 0
KFAS 141000Z 05013G19KT 19/14 A3027 RMK A01 T01890140  RH  077%=      5-min Rain = 0
KFAS 141005Z 05011KT 19/14 A3027 RMK A01 T01870138  RH  076%=      5-min Rain = 0
KFAS 141010Z 05011KT 19/14 A3027 RMK A01 T01860137  RH  076%=      5-min Rain = 0
KFAS 141015Z 04010KT 18/14 A3027 RMK A01 T01840136  RH  077%=      5-min Rain = 0
KFAS 141020Z 05010KT 18/13 A3027 RMK A01 T01830134  RH  076%=      5-min Rain = 0
KFAS 141025Z 05009KT 18/13 A3027 RMK A01 T01820134  RH  076%=      5-min Rain = 0
KFAS 141030Z 04009KT 18/13 A3027 RMK A01 T01820133  RH  076%=      5-min Rain = 0
KFAS 141035Z 04008KT 18/13 A3028 RMK A01 T01820132  RH  075%=      5-min Rain = 0
KFAS 141040Z 05010KT 18/13 A3027 RMK A01 T01830130  RH  074%=      5-min Rain = 0
KFAS 141045Z 05008KT 18/13 A3027 RMK A01 T01830128  RH  073%=      5-min Rain = 0
KFAS 141050Z 04010KT 18/13 A3028 RMK A01 T01820127  RH  073%=      5-min Rain = 0
KFAS 141055Z 03011KT 18/13 A3028 RMK A01 T01820126  RH  073%=      5-min Rain = 0
KFAS 141100Z 04011G16KT 18/13 A3028 RMK A01 T01820125  RH  072%=      5-min Rain = 0
KFAS 141105Z 06010KT 18/12 A3028 RMK A01 T01820124  RH  072%=      5-min Rain = 0
KFAS 141110Z 06011KT 18/12 A3028 RMK A01 T01830123  RH  071%=      5-min Rain = 0
KFAS 141115Z 06011KT 18/12 A3028 RMK A01 T01830123  RH  070%=      5-min Rain = 0
KFAS 141120Z 05009KT 19/12 A3029 RMK A01 T01850123  RH  070%=      5-min Rain = 0
KFAS 141125Z 06009KT 19/12 A3029 RMK A01 T01860123  RH  069%=      5-min Rain = 0
KFAS 141130Z 06011KT 19/12 A3029 RMK A01 T01870122  RH  068%=      5-min Rain = 0
KFAS 141135Z 06009KT 19/12 A3029 RMK A01 T01880122  RH  068%=      5-min Rain = 0
KFAS 141140Z 06007KT 19/12 A303 RMK A01 T01880122  RH  068%=      5-min Rain = 0
KFAS 141145Z 06008KT 19/12 A303 RMK A01 T01880122  RH  068%=      5-min Rain = 0
KFAS 141150Z 04007KT 19/12 A303 RMK A01 T01880122  RH  068%=      5-min Rain = 0
KFAS 141155Z 05007KT 19/12 A303 RMK A01 T01890123  RH  068%=      5-min Rain = 0
KFAS 141200Z 03008KT 19/12 A3031 RMK A01 T01890122  RH  068%=      5-min Rain = 0
KFAS 141205Z 03009KT 19/12 A3032 RMK A01 T01870123  RH  069%=      5-min Rain = 0
KFAS 141210Z 04009KT 19/12 A3032 RMK A01 T01860122  RH  069%=      5-min Rain = 0
KFAS 141215Z 04008KT 19/12 A3031 RMK A01 T01860123  RH  069%=      5-min Rain = 0
KFAS 141220Z 04008KT 19/12 A3031 RMK A01 T01860123  RH  069%=      5-min Rain = 0
KFAS 141225Z 02010KT 19/12 A3033 RMK A01 T01860123  RH  069%=      5-min Rain = 0
KFAS 141230Z 36013G22KT 19/13 A3033 RMK A01 T01850125  RH  071%=      5-min Rain = 0
KFAS 141235Z 36018G23KT 19/13 A3034 RMK A01 T01850126  RH  071%=      5-min Rain = 0
KFAS 141240Z 01015KT 18/13 A3034 RMK A01 T01830126  RH  072%=      5-min Rain = 0
KFAS 141245Z 02016KT 18/13 A3034 RMK A01 T01830125  RH  072%=      5-min Rain = 0
KFAS 141250Z 01015KT 18/13 A3034 RMK A01 T01840125  RH  071%=      5-min Rain = 0
KFAS 141255Z 02015KT 19/12 A3034 RMK A01 T01850123  RH  070%=      5-min Rain = 0
KFAS 141300Z 02014KT 19/12 A3033 RMK A01 T01850124  RH  070%=      5-min Rain = 0
KFAS 141305Z 03013KT 19/12 A3033 RMK A01 T01850124  RH  070%=      5-min Rain = 0
KFAS 141310Z 03010G15KT 19/13 A3033 RMK A01 T01850125  RH  071%=      5-min Rain = 0
KFAS 141315Z 03010KT 19/13 A3033 RMK A01 T01850125  RH  071%=      5-min Rain = 0
KFAS 141320Z 02008KT 19/13 A3033 RMK A01 T01850126  RH  071%=      5-min Rain = 0
KFAS 141325Z 02007KT 18/13 A3034 RMK A01 T01840128  RH  073%=      5-min Rain = 0
KFAS 141330Z 02005G10KT 18/13 A3033 RMK A01 T01820129  RH  074%=      5-min Rain = 0
KFAS 141335Z 20003KT 18/13 A3033 RMK A01 T01800131  RH  076%=      5-min Rain = 0
KFAS 141340Z 18004KT 18/13 A3033 RMK A01 T01780130  RH  076%=      5-min Rain = 0
KFAS 141345Z 17007KT 18/13 A3033 RMK A01 T01780131  RH  077%=      5-min Rain = 0
KFAS 141350Z 23006G11KT 18/13 A3033 RMK A01 T01770129  RH  076%=      5-min Rain = 0.01
KFAS 141355Z 30008G14KT 18/13 A3034 RMK A01 T01800129  RH  075%=      5-min Rain = 0.01
KFAS 141400Z 26006G13KT 17/14 A3034 RMK A01 T01740137  RH  082%=      5-min Rain = 0.01
KFAS 141405Z 22013G18KT 17/14 A3034 RMK A01 T01700139  RH  086%=      5-min Rain = 0.01
KFAS 141410Z 22012G18KT 17/14 A3032 RMK A01 T01680140  RH  087%=      5-min Rain = 0.01
KFAS 141415Z 19024G33KT 17/14 A3028 RMK A01 T01660142  RH  089%=      5-min Rain = 0.01
KFAS 141420Z 18030KT 17/14 A3023 RMK A01 T01650141  RH  089%=      5-min Rain = 0.01
KFAS 141425Z 17023G34KT 17/14 A3022 RMK A01 T01650140  RH  089%=      5-min Rain = 0
KFAS 141430Z 16021G34KT 18/14 A3021 RMK A01 T01780135  RH  080%=      5-min Rain = 0.01
KFAS 141435Z 16022G34KT 20/13 A3022 RMK A01 T02040125  RH  063%=      5-min Rain = 0
KFAS 141440Z 17015G24KT 22/13 A3024 RMK A01 T02150129  RH  060%=      5-min Rain = 0
KFAS 141445Z 18004G12KT 22/13 A3026 RMK A01 T02180125  RH  057%=      5-min Rain = 0
KFAS 141450Z 24006KT 22/13 A3026 RMK A01 T02190127  RH  058%=      5-min Rain = 0
KFAS 141455Z 25004KT 22/13 A3027 RMK A01 T02210128  RH  058%=      5-min Rain = 0
KFAS 141500Z 25003KT 23/13 A3027 RMK A01 T02280126  RH  054%=      5-min Rain = 0
KFAS 141505Z 32006KT 23/14 A3027 RMK A01 T02340140  RH  058%=      5-min Rain = 0
KFAS 141510Z 02005KT 24/15 A3027 RMK A01 T02350149  RH  061%=      5-min Rain = 0
KFAS 141515Z 03006KT 24/15 A3026 RMK A01 T02360150  RH  061%=      5-min Rain = 0
KFAS 141520Z 04007KT 24/14 A3027 RMK A01 T02370140  RH  057%=      5-min Rain = 0
KFAS 141525Z 04007KT 24/15 A3027 RMK A01 T02370151  RH  061%=      5-min Rain = 0
KFAS 141530Z 05006KT 24/16 A3027 RMK A01 T02410155  RH  061%=      5-min Rain = 0
KFAS 141535Z 06006KT 25/15 A3027 RMK A01 T02470151  RH  058%=      5-min Rain = 0
KFAS 141540Z 07006KT 25/14 A3026 RMK A01 T02480141  RH  054%=      5-min Rain = 0
KFAS 141545Z 07007KT 25/14 A3026 RMK A01 T02450142  RH  055%=      5-min Rain = 0
KFAS 141550Z 07007KT 25/15 A3027 RMK A01 T02500147  RH  055%=      5-min Rain = 0
KFAS 141555Z 06007KT 25/14 A3027 RMK A01 T02520139  RH  052%=      5-min Rain = 0
KFAS 141600Z 06008KT 26/14 A3027 RMK A01 T02580137  RH  049%=      5-min Rain = 0
KFAS 141605Z 07006KT 27/13 A3027 RMK A01 T02650131  RH  045%=      5-min Rain = 0
KFAS 141610Z 04005KT 27/13 A3027 RMK A01 T02690127  RH  043%=      5-min Rain = 0
KFAS 141615Z 07004KT 28/12 A3028 RMK A01 T02750119  RH  040%=      5-min Rain = 0
KFAS 141620Z 06003KT 27/12 A3029 RMK A01 T02740118  RH  040%=      5-min Rain = 0
KFAS 141625Z 11002KT 27/13 A303 RMK A01 T02710125  RH  042%=      5-min Rain = 0
KFAS 141630Z 07006KT 27/13 A303 RMK A01 T02680127  RH  043%=      5-min Rain = 0
KFAS 141635Z 07009KT 27/13 A303 RMK A01 T02700131  RH  044%=      5-min Rain = 0
KFAS 141640Z 08006KT 27/13 A303 RMK A01 T02720129  RH  043%=      5-min Rain = 0
KFAS 141645Z 07005KT 28/13 A303 RMK A01 T02760128  RH  042%=      5-min Rain = 0
KFAS 141650Z 05005KT 28/13 A303 RMK A01 T02820125  RH  039%=      5-min Rain = 0
KFAS 141655Z 02009G14KT 28/13 A303 RMK A01 T02830132  RH  041%=      5-min Rain = 0
KFAS 141700Z 02010KT 28/14 A303 RMK A01 T02810136  RH  043%=      5-min Rain = 0
KFAS 141705Z 02012G18KT 28/14 A303 RMK A01 T02780138  RH  044%=      5-min Rain = 0
KFAS 141710Z 01016KT 26/14 A303 RMK A01 T02640144  RH  050%=      5-min Rain = 0
KFAS 141715Z 01013KT 26/14 A303 RMK A01 T02610141  RH  050%=      5-min Rain = 0
KFAS 141720Z 01011KT 26/14 A303 RMK A01 T02630142  RH  050%=      5-min Rain = 0
KFAS 141725Z 36011KT 27/14 A303 RMK A01 T02670144  RH  049%=      5-min Rain = 0
KFAS 141730Z 36015G20KT 27/15 A303 RMK A01 T02730148  RH  049%=      5-min Rain = 0
KFAS 141735Z 00014G21KT 27/15 A303 RMK A01 T02730154  RH  050%=      5-min Rain = 0
KFAS 141740Z 00014G20KT 27/15 A303 RMK A01 T02720154  RH  051%=      5-min Rain = 0
KFAS 141745Z 00013G20KT 27/16 A303 RMK A01 T02740157  RH  051%=      5-min Rain = 0
KFAS 141750Z 01012G17KT 28/15 A303 RMK A01 T02760152  RH  049%=      5-min Rain = 0
KFAS 141755Z 01016G22KT 28/15 A3029 RMK A01 T02750149  RH  048%=      5-min Rain = 0
KFAS 141800Z 02015KT 28/14 A3029 RMK A01 T02750142  RH  046%=      5-min Rain = 0
KFAS 141805Z 02013G22KT 28/14 A3029 RMK A01 T02760136  RH  044%=      5-min Rain = 0
KFAS 141810Z 03011G16KT 28/14 A3029 RMK A01 T02780137  RH  044%=      5-min Rain = 0
KFAS 141815Z 06010KT 28/14 A3028 RMK A01 T02820139  RH  043%=      5-min Rain = 0
KFAS 141820Z 03010KT 28/14 A3028 RMK A01 T02820142  RH  044%=      5-min Rain = 0
KFAS 141825Z 03014KT 28/14 A3028 RMK A01 T02800141  RH  044%=      5-min Rain = 0
KFAS 141830Z 04013KT 28/14 A3028 RMK A01 T02810140  RH  044%=      5-min Rain = 0
KFAS 141835Z 06011G17KT 28/14 A3028 RMK A01 T02790136  RH  043%=      5-min Rain = 0
KFAS 141840Z 06011G16KT 28/13 A3028 RMK A01 T02800132  RH  042%=      5-min Rain = 0
KFAS 141845Z 05009KT 28/13 A3028 RMK A01 T02820131  RH  041%=      5-min Rain = 0
KFAS 141850Z 03007G12KT 28/14 A3027 RMK A01 T02830136  RH  042%=      5-min Rain = 0
KFAS 141855Z 06007G14KT 28/13 A3027 RMK A01 T02830134  RH  042%=      5-min Rain = 0
KFAS 141900Z 07005KT 28/14 A3026 RMK A01 T02840137  RH  042%=      5-min Rain = 0
KFAS 141905Z 08007G12KT 29/14 A3026 RMK A01 T02870142  RH  043%=      5-min Rain = 0
KFAS 141910Z 09006KT 29/14 A3025 RMK A01 T02890141  RH  042%=      5-min Rain = 0
KFAS 141915Z 09005KT 29/14 A3025 RMK A01 T02900137  RH  041%=      5-min Rain = 0
KFAS 141920Z 08004G10KT 29/14 A3025 RMK A01 T02930136  RH  040%=      5-min Rain = 0
KFAS 141925Z 11003KT 29/13 A3024 RMK A01 T02920126  RH  038%=      5-min Rain = 0
KFAS 141930Z 11003KT 29/13 A3024 RMK A01 T02940134  RH  039%=      5-min Rain = 0
KFAS 141935Z 17003KT 30/12 A3024 RMK A01 T02980123  RH  035%=      5-min Rain = 0
KFAS 141940Z 22002KT 30/12 A3023 RMK A01 T02990121  RH  035%=      5-min Rain = 0
KFAS 141945Z 22003KT 30/12 A3023 RMK A01 T03020118  RH  033%=      5-min Rain = 0
KFAS 141950Z 19003KT 30/12 A3023 RMK A01 T03020119  RH  034%=      5-min Rain = 0
KFAS 141955Z 15002KT 30/12 A3023 RMK A01 T03020122  RH  034%=      5-min Rain = 0
KFAS 142000Z 31002KT 31/12 A3023 RMK A01 T03050123  RH  034%=      5-min Rain = 0
KFAS 142005Z 31002KT 31/13 A3022 RMK A01 T03060127  RH  035%=      5-min Rain = 0
KFAS 142010Z 31002KT 31/12 A3022 RMK A01 T03060119  RH  033%=      5-min Rain = 0
KFAS 142015Z 01003KT 30/12 A3022 RMK A01 T03020120  RH  034%=      5-min Rain = 0
KFAS 142020Z 01003KT 31/12 A3022 RMK A01 T03060121  RH  033%=      5-min Rain = 0
KFAS 142025Z 00002KT 31/12 A3021 RMK A01 T03070119  RH  033%=      5-min Rain = 0
KFAS 142030Z 17002KT 31/13 A3021 RMK A01 T03120125  RH  033%=      5-min Rain = 0
KFAS 142035Z 11002KT 31/13 A3021 RMK A01 T03140127  RH  033%=      5-min Rain = 0
KFAS 142040Z 09003KT 31/12 A302 RMK A01 T03130124  RH  033%=      5-min Rain = 0
KFAS 142045Z 32003KT 31/12 A302 RMK A01 T03130122  RH  032%=      5-min Rain = 0
KFAS 142050Z 26002G8KT 31/12 A302 RMK A01 T03120118  RH  031%=      5-min Rain = 0
KFAS 142055Z 15005KT 31/12 A302 RMK A01 T03140120  RH  032%=      5-min Rain = 0
KFAS 142100Z 13003KT 32/12 A302 RMK A01 T03160120  RH  031%=      5-min Rain = 0
KFAS 142105Z 22003KT 32/12 A3019 RMK A01 T03230120  RH  030%=      5-min Rain = 0
KFAS 142110Z 18002KT 32/11 A3019 RMK A01 T03220113  RH  029%=      5-min Rain = 0
KFAS 142115Z 15002KT 32/12 A3019 RMK A01 T03230117  RH  029%=      5-min Rain = 0
KFAS 142120Z 19003KT 33/11 A3019 RMK A01 T03250112  RH  028%=      5-min Rain = 0
KFAS 142125Z 14002KT 32/11 A3018 RMK A01 T03240112  RH  028%=      5-min Rain = 0
KFAS 142130Z 21003KT 33/12 A3018 RMK A01 T03250116  RH  029%=      5-min Rain = 0
KFAS 142135Z 24003KT 32/11 A3018 RMK A01 T03240110  RH  028%=      5-min Rain = 0
KFAS 142140Z 32001KT 32/11 A3018 RMK A01 T03240112  RH  028%=      5-min Rain = 0
KFAS 142145Z 33004KT 32/11 A3018 RMK A01 T03230113  RH  029%=      5-min Rain = 0
KFAS 142150Z 34006KT 32/11 A3017 RMK A01 T03190112  RH  029%=      5-min Rain = 0
KFAS 142155Z 01004KT 32/11 A3017 RMK A01 T03190114  RH  030%=      5-min Rain = 0
KFAS 142200Z 25003KT 33/11 A3017 RMK A01 T03250108  RH  027%=      5-min Rain = 0
KFAS 142205Z 25005KT 33/11 A3017 RMK A01 T03260109  RH  027%=      5-min Rain = 0
KFAS 142210Z 21004KT 33/11 A3016 RMK A01 T03250110  RH  028%=      5-min Rain = 0
KFAS 142215Z 18003KT 33/11 A3016 RMK A01 T03250112  RH  028%=      5-min Rain = 0
KFAS 142220Z 14003KT 33/11 A3016 RMK A01 T03270114  RH  028%=      5-min Rain = 0
KFAS 142225Z 13002KT 33/11 A3016 RMK A01 T03280114  RH  028%=      5-min Rain = 0
KFAS 142230Z 08003KT 33/12 A3016 RMK A01 T03260116  RH  029%=      5-min Rain = 0
KFAS 142235Z 09004KT 32/11 A3016 RMK A01 T03230113  RH  029%=      5-min Rain = 0
KFAS 142240Z 07004KT 32/11 A3016 RMK A01 T03210112  RH  029%=      5-min Rain = 0
KFAS 142245Z 08004KT 32/11 A3016 RMK A01 T03230113  RH  029%=      5-min Rain = 0
KFAS 142250Z 13003KT 32/11 A3016 RMK A01 T03240111  RH  028%=      5-min Rain = 0
KFAS 142255Z 10002KT 33/11 A3016 RMK A01 T03270114  RH  028%=      5-min Rain = 0
KFAS 142300Z 12003KT 33/11 A3015 RMK A01 T03260111  RH  028%=      5-min Rain = 0
KFAS 142305Z 09002KT 33/11 A3015 RMK A01 T03250111  RH  028%=      5-min Rain = 0
KFAS 142310Z 11001KT 33/11 A3015 RMK A01 T03270111  RH  028%=      5-min Rain = 0
KFAS 142315Z 17003G8KT 33/12 A3015 RMK A01 T03340119  RH  028%=      5-min Rain = 0
KFAS 142320Z 21001KT 34/12 A3015 RMK A01 T03350115  RH  027%=      5-min Rain = 0
KFAS 142325Z 12004KT 33/12 A3015 RMK A01 T03330123  RH  029%=      5-min Rain = 0
KFAS 142330Z 12004KT 33/12 A3015 RMK A01 T03250119  RH  030%=      5-min Rain = 0
KFAS 142335Z 12005KT 32/13 A3015 RMK A01 T03210130  RH  032%=      5-min Rain = 0
KFAS 142340Z 12004KT 32/14 A3015 RMK A01 T03170135  RH  034%=      5-min Rain = 0
KFAS 142345Z 11003KT 32/13 A3015 RMK A01 T03150129  RH  033%=      5-min Rain = 0
KFAS 142350Z 12002KT 32/12 A3014 RMK A01 T03170120  RH  031%=      5-min Rain = 0
KFAS 142355Z 13002KT 32/13 A3014 RMK A01 T03230125  RH  031%=      5-min Rain = 0
KFAS 150000Z 14001KT 33/12 A3015 RMK A01 T03260119  RH  029%=      5-min Rain = 0
KFAS 150005Z 16002KT 33/12 A3015 RMK A01 T03280117  RH  029%=      5-min Rain = 0
KFAS 150010Z 16003KT 33/12 A3015 RMK A01 T03280115  RH  028%=      5-min Rain = 0
KFAS 150015Z 16001KT 33/11 A3015 RMK A01 T03270114  RH  028%=      5-min Rain = 0
KFAS 150020Z 21002KT 33/12 A3015 RMK A01 T03290117  RH  028%=      5-min Rain = 0
KFAS 150025Z 21004KT 32/12 A3015 RMK A01 T03190123  RH  031%=      5-min Rain = 0
KFAS 150030Z 21006KT 31/12 A3015 RMK A01 T03100119  RH  032%=      5-min Rain = 0
KFAS 150035Z 20005KT 31/12 A3015 RMK A01 T03060120  RH  033%=      5-min Rain = 0
KFAS 150040Z 21006KT 30/12 A3015 RMK A01 T03000121  RH  034%=      5-min Rain = 0
KFAS 150045Z 21005KT 30/13 A3015 RMK A01 T02950125  RH  037%=      5-min Rain = 0
KFAS 150050Z 22005KT 29/13 A3015 RMK A01 T02900129  RH  039%=      5-min Rain = 0
KFAS 150055Z 20005KT 29/13 A3015 RMK A01 T02870127  RH  039%=      5-min Rain = 0
KFAS 150100Z 20005KT 29/13 A3016 RMK A01 T02870129  RH  039%=      5-min Rain = 0
KFAS 150105Z 20006KT 28/13 A3016 RMK A01 T02840129  RH  040%=      5-min Rain = 0
KFAS 150110Z 20006KT 28/13 A3016 RMK A01 T02810133  RH  042%=      5-min Rain = 0
KFAS 150115Z 21006KT 28/13 A3016 RMK A01 T02780130  RH  042%=      5-min Rain = 0
KFAS 150120Z 21006KT 28/13 A3017 RMK A01 T02760132  RH  043%=      5-min Rain = 0
KFAS 150125Z 22007KT 28/13 A3017 RMK A01 T02780129  RH  042%=      5-min Rain = 0
KFAS 150130Z 23007KT 28/13 A3017 RMK A01 T02810128  RH  040%=      5-min Rain = 0
KFAS 150135Z 23007KT 28/13 A3017 RMK A01 T02780131  RH  042%=      5-min Rain = 0
KFAS 150140Z 24006KT 27/13 A3017 RMK A01 T02740134  RH  044%=      5-min Rain = 0
KFAS 150145Z 24006KT 27/14 A3017 RMK A01 T02700138  RH  046%=      5-min Rain = 0
KFAS 150150Z 24006KT 27/14 A3017 RMK A01 T02650142  RH  049%=      5-min Rain = 0
KFAS 150155Z 24005KT 26/15 A3017 RMK A01 T02600149  RH  052%=      5-min Rain = 0
KFAS 150200Z 09006KT 25/16 A3018 RMK A01 T02530156  RH  057%=      5-min Rain = 0
KFAS 150205Z 10006KT 25/15 A3018 RMK A01 T02490149  RH  056%=      5-min Rain = 0
KFAS 150210Z 11006KT 25/15 A3018 RMK A01 T02510146  RH  054%=      5-min Rain = 0
KFAS 150215Z 13006KT 25/15 A3019 RMK A01 T02510145  RH  054%=      5-min Rain = 0
KFAS 150220Z 13005KT 25/14 A3018 RMK A01 T02500144  RH  054%=      5-min Rain = 0
KFAS 150225Z 12005KT 25/14 A3018 RMK A01 T02490144  RH  054%=      5-min Rain = 0
KFAS 150230Z 11005KT 25/15 A3018 RMK A01 T02460151  RH  058%=      5-min Rain = 0
KFAS 150235Z 13007KT 24/15 A3018 RMK A01 T02420150  RH  059%=      5-min Rain = 0
KFAS 150240Z 13007KT 24/15 A3018 RMK A01 T02390151  RH  060%=      5-min Rain = 0
KFAS 150245Z 14007KT 24/15 A3019 RMK A01 T02370149  RH  061%=      5-min Rain = 0
KFAS 150250Z 14007KT 24/15 A3019 RMK A01 T02370148  RH  060%=      5-min Rain = 0
KFAS 150255Z 14007KT 24/15 A302 RMK A01 T02380147  RH  059%=      5-min Rain = 0
KFAS 150300Z 14007KT 24/14 A302 RMK A01 T02390144  RH  058%=      5-min Rain = 0
KFAS 150305Z 14007KT 24/14 A302 RMK A01 T02410143  RH  057%=      5-min Rain = 0
KFAS 150310Z 15007KT 24/14 A302 RMK A01 T02410142  RH  056%=      5-min Rain = 0
KFAS 150315Z 15008KT 24/14 A302 RMK A01 T02430139  RH  054%=      5-min Rain = 0
KFAS 150320Z 15007KT 25/14 A302 RMK A01 T02450139  RH  054%=      5-min Rain = 0
KFAS 150325Z 15007KT 24/14 A302 RMK A01 T02440141  RH  055%=      5-min Rain = 0
KFAS 150330Z 15007KT 25/14 A302 RMK A01 T02450138  RH  053%=      5-min Rain = 0
KFAS 150335Z 15007KT 25/14 A3021 RMK A01 T02450140  RH  054%=      5-min Rain = 0
KFAS 150340Z 15008KT 25/14 A3021 RMK A01 T02460136  RH  053%=      5-min Rain = 0
KFAS 150345Z 14007KT 25/14 A3021 RMK A01 T02470136  RH  052%=      5-min Rain = 0
KFAS 150350Z 14007KT 25/14 A3021 RMK A01 T02450138  RH  053%=      5-min Rain = 0
KFAS 150355Z 14007KT 24/14 A3021 RMK A01 T02430139  RH  055%=      5-min Rain = 0
KFAS 150400Z 15007KT 24/14 A3021 RMK A01 T02410139  RH  055%=      5-min Rain = 0
KFAS 150405Z 15006KT 24/14 A3021 RMK A01 T02400139  RH  056%=      5-min Rain = 0
KFAS 150410Z 15006KT 24/14 A3021 RMK A01 T02390140  RH  056%=      5-min Rain = 0
KFAS 150415Z 15007KT 24/14 A3021 RMK A01 T02390139  RH  056%=      5-min Rain = 0
KFAS 150420Z 15007KT 24/14 A3021 RMK A01 T02390138  RH  055%=      5-min Rain = 0
KFAS 150425Z 15007KT 24/14 A3021 RMK A01 T02410136  RH  054%=      5-min Rain = 0
KFAS 150430Z 15007KT 24/14 A3021 RMK A01 T02420138  RH  054%=      5-min Rain = 0
KFAS 150435Z 15007KT 24/14 A3021 RMK A01 T02410138  RH  055%=      5-min Rain = 0
KFAS 150440Z 15008KT 24/14 A302 RMK A01 T02410136  RH  054%=      5-min Rain = 0
KFAS 150445Z 14008KT 24/14 A302 RMK A01 T02410136  RH  054%=      5-min Rain = 0
KFAS 150450Z 14008KT 24/14 A3021 RMK A01 T02410136  RH  054%=      5-min Rain = 0
KFAS 150455Z 14009KT 24/14 A3021 RMK A01 T02400135  RH  054%=      5-min Rain = 0

Page generated in 0.0089 seconds.